Ayr Dpi Research Station, Queensland

5:49 PM AEST on February 12, 2016 (GMT +1000)
AYR Live Weather | | Change Station
CLOSE
Current Station
Personal Weather Station
Location: Ayr, QLD
Elevation: 39 ft
Nearby Weather Stations

Elev 39 ft 19.58 °S, 147.42 °E | Updated 9 seconds ago

Partly Cloudy
Partly Cloudy
88.2 °F
Feels Like 98 °F
N
0.0
Wind Variable Wind from North
Gusts 3.0 mph

Today
High -- | Low -- °F
--% Chance of Precip.
Yesterday
High -- | Low -- °F
Precip. -- in
Pressure 29.68 in
Visibility 6.2 miles
Clouds Few 5000 ft
Heat Index 98 °F
Dew Point 75 °F
Humidity 65%
Rainfall 0.00 in
Snow Depth Not available.
6:00 AM 6:48 PM
Waxing Crescent, 18% visible
METAR YBTL 120700Z 06007KT 030V130 9999 FEW050 32/22 Q1005 NOSIG RMK USE TAF FOR ARRIVALS AFTER 0800Z
Pressure 29.68 in
Visibility 6.2 miles
Clouds Few 5000 ft
Heat Index 98 °F
Dew Point 75 °F
Humidity 65%
Rainfall 0.00 in
Snow Depth Not available.
6:00 AM 6:48 PM
Waxing Crescent, 18% visible
METAR YBTL 120700Z 06007KT 030V130 9999 FEW050 32/22 Q1005 NOSIG RMK USE TAF FOR ARRIVALS AFTER 0800Z

10-Day Weather Forecast

Almanac

Astronomy

Feb. 12, 2016 Rise Set
Actual Time
Civil Twilight
Nautical Twilight
Astronomical Twilight
Moon
Length of Visible Light
Length of Day
Tomorrow will be .
, % of the Moon is Illuminated

Today's Extremes

Country Highs Country Lows

Community

WunderPhotos

Upload Photos

1,892,278 photos uploaded!

WunderBlog® & News

Nearby

Air Quality

  Air Quality AQ Index Pollutant
Not available.

Snow Depth

Station Depth Elevation

Earthquake Activity

City Distance Mag. Time & Date
Minimum magnitude displayed is 2.5.

Coastal Water Temperatures

Place Temperature

Stations

Nearby Weather Stations

Station Location Temp. Windchill Dew Point Humidity Wind Precip. Elev Updated Type